x

Edisto - 41 Nm Southeast Of Charleston, Sc (41004) Wave Buoy

3:50am - Thu 18th Dec 2014 All times are EST. -5 hours from GMT.

  • Sig Wave height 1.6ft
  • Swell Direction
  • Peak Period 10s
  • Average Period 4s
  • Wind
    9mph, 11mph gusts
  • Sea Temp 73°f
  • Air Temp 61°f
  • Sea Pressure 1018.6mb
  • Edisto - 41 Nm Southeast Of Charleston, Sc
  • Edisto - 41 Nm Southeast Of Charleston, Sc

More Historic Weather Station data

Upgrade to MSW Pro to gain access to the past 30 days of data for over 8000 Wavebouys and Weather Stations around the globe.

Join Pro

Comparision Forecast

View Surf forecast
   
Thu 12/18 3:50am 1.6ft 10s 4s 9 11 mph 1018.6mb 73f 61f
2:50am 1.6ft 11s 4s 9 11 mph 1018.7mb 73f 61f
1:50am 1.6ft 10s 4s 11 18 mph 1018.8mb 73f 61f
12:50am 1.6ft 11s 4s 9 13 mph 1018.9mb 73f 61f
Wed 12/17 11:50pm 1.3ft 11s 4s 11 16 mph 1019.2mb 73f 61f
10:50pm 1.6ft 10s 5s 9 11 mph 1019.4mb 73f 61f
9:50pm 1.3ft 11s 5s 7 9 mph 1019.6mb 73f 61f
8:50pm 1.6ft 11s 5s 7 13 mph 1019.5mb 73f 61f
7:50pm 1.6ft 11s 5s 9 11 mph 1019.5mb 73f 61f
6:50pm 1.6ft 11s 5s 7 11 mph 1019.2mb 73f 60f
5:50pm 1.6ft 4s 4s 7 9 mph 1018.9mb 73f 60f
4:50pm 2ft 11s 4s 4 7 mph 1018.3mb 73f 60f
3:50pm 2ft 5s 4s 4 9 mph 1018.3mb 73f 61f
2:50pm 2.5ft 4s 4s 2 4 mph 1018mb 73f 60f
1:50pm 2.5ft 6s 4s 2 4 mph 1018.7mb 73f 60f
12:50pm 2.5ft 4s 4s 4 9 mph 1019.4mb 73f 59f
11:50am 2.5ft 4s 5s 9 11 mph 1020mb 73f 59f
10:50am 3ft 4s 4s 9 13 mph 1020.7mb 73f 59f
9:50am 3.5ft 4s 4s 13 16 mph 1020.8mb 73f 58f
8:50am 3.5ft 4s 4s 16 18 mph 1020.3mb 73f 58f
7:50am 3.5ft 6s 4s 18 22 mph 1019.7mb 73f 58f
6:50am 3.5ft 4s 4s 18 20 mph 1019.2mb 73f 58f
5:50am 4.5ft 5s 4s 16 20 mph 1018.5mb 73f 58f
4:50am 4.5ft 5s 5s 18 22 mph 1018mb 73f 58f
3:50am 4.5ft 6s 5s 22 27 mph 1017.7mb 73f 58f
2:50am 4.5ft 6s 5s 20 25 mph 1017.5mb 73f 59f
1:50am 4.5ft 6s 5s 20 25 mph 1017.2mb 73f 61f
12:50am 5ft 6s 5s 20 25 mph 1017mb 73f 63f
Tue 12/16 11:50pm 5ft 6s 5s 22 27 mph 1016.8mb 73f 64f
10:50pm 5.5ft 6s 5s 27 34 mph 1016.3mb 73f 67f
9:50pm 5.5ft 6s 5s 27 34 mph 1015.8mb 73f 69f
8:50pm 6ft 6s 5s 27 31 mph 1015.8mb 73f 70f
7:50pm 6ft 6s 5s 27 34 mph 1015mb 73f 71f
6:50pm 6ft 6s 5s 29 34 mph 1014.8mb 73f 71f
5:50pm 5.5ft 6s 5s 27 31 mph 1014.3mb 73f 71f
4:50pm 5ft 5s 5s 27 31 mph 1014.9mb 73f 70f
3:50pm 5ft 5s 5s 25 29 mph 1014.7mb 74f 70f
2:50pm 4.5ft 5s 4s 22 27 mph 1014.9mb 74f 69f
1:50pm 4.5ft 5s 4s 22 27 mph 1015.6mb 74f 69f
12:50pm 3.5ft 4s 4s 22 27 mph 1016.5mb 74f 68f
11:50am 3.5ft 4s 4s 20 27 mph 1018.1mb 74f 68f
10:50am 3ft 4s 4s 20 25 mph 1019.2mb 74f 68f
9:50am 2.5ft 4s 4s 18 20 mph 1019.3mb 73f 68f
8:50am 2.5ft 11s 4s 18 20 mph 1019.1mb 74f 67f
7:50am 2.5ft 11s 4s 16 18 mph 1019.4mb 74f 66f
6:50am 2.5ft 9s 4s 18 22 mph 1019.2mb 74f 66f
5:50am 2.5ft 11s 4s 16 20 mph 1018.3mb 74f 66f
4:50am 2.5ft 11s 4s 16 20 mph 1018mb 74f 66f
3:50am 2.5ft 11s 5s 13 18 mph 1018.3mb 74f 65f
2:50am 2.5ft 12s 4s 13 18 mph 1018.7mb 74f 65f
1:50am 2.5ft 11s 4s 13 18 mph 1018.6mb 74f 66f
12:50am 2.5ft 11s 5s 11 16 mph 1018.4mb 74f 66f
Mon 12/15 11:50pm 2ft 11s 5s 13 16 mph 1018.9mb 74f 66f
10:50pm 2.5ft 11s 5s 13 16 mph 1019.1mb 74f 67f
9:50pm 2.5ft 11s 5s 11 13 mph 1019mb 74f 67f
8:50pm 2.5ft 11s 6s 11 13 mph 1019mb 74f 68f
7:50pm 2ft 10s 6s 7 11 mph 1018.7mb 74f 67f
6:50pm 2.5ft 11s 6s 11 13 mph 1018.7mb 74f 67f
5:50pm 2ft 12s 6s 7 9 mph 1018mb 74f 69f
4:50pm 2ft 11s 6s 7 11 mph 1017.6mb 74f 69f
3:50pm 2ft 11s 6s 4 9 mph 1017.5mb 74f 69f
2:50pm 2ft 11s 6s 7 11 mph 1017.3mb 74f 68f
1:50pm 2ft 11s 6s 4 7 mph 1017.4mb 74f 67f
12:50pm 2.5ft 11s 6s 4 7 mph 1018.1mb 74f 67f
11:50am 2ft 8s 6s 7 11 mph 1018.5mb 74f 66f
10:50am 2ft 12s 6s 7 9 mph 1019.5mb 74f 66f
9:50am 2ft 10s 6s 4 9 mph 1019.5mb 74f 66f
8:50am 2ft 11s 7s 4 7 mph 1018.9mb 74f 65f
7:50am 2ft 11s 6s 4 9 mph 1018.2mb 73f 65f
6:50am 2ft 11s 6s 4 7 mph 1017.9mb 73f 64f
5:50am 2ft 11s 6s 4 9 mph 1017.5mb 73f 64f
4:50am 2ft 11s 7s 4 7 mph 1017.3mb 73f 63f
3:50am 2ft 11s 7s 7 9 mph 1017.1mb 74f 63f
2:50am 2ft 12s 7s 4 9 mph 1017.2mb 74f 63f
1:50am 2ft 11s 6s 4 7 mph 1017.1mb 74f 63f
12:50am 2ft 11s 6s 4 7 mph 1017.1mb 73f 63f
Sun 12/14 11:50pm 2ft 12s 6s 4 9 mph 1017mb 73f 64f
10:50pm 2ft 11s 6s 7 9 mph 1017mb 73f 64f
9:50pm 2ft 12s 6s 7 9 mph 1016.9mb 73f 65f
8:50pm 2ft 11s 5s 4 7 mph 1016.7mb 73f 64f
7:50pm 2.5ft 12s 5s 2 4 mph 1016.8mb 73f 63f
6:50pm 2.5ft 12s 5s  -  2 mph 1016.6mb 74f 62f
5:50pm 2ft 12s 5s 4 7 mph 1016.3mb 74f 62f
4:50pm 2ft 12s 5s 4
mph
1016.1mb 74f 62f
3:50pm 2.5ft 11s 5s 2 4 mph 1016.1mb 74f 61f
2:50pm 2ft 13s 5s 7 9 mph 1016.1mb 74f 60f
1:50pm 2ft 12s 5s 7 9 mph 1016.1mb 73f 60f
12:50pm 2.5ft 12s 5s 7 11 mph 1016.5mb 73f 60f
11:50am 2ft 11s 5s 7 11 mph 1017.3mb 73f 59f
10:50am 2ft 11s 5s 9 11 mph 1018mb 73f 59f
9:50am 2ft 12s 4s 9 11 mph 1017.9mb 73f 59f